sensor_id;sensor_type;location;lat;lon;timestamp;P1;durP1;ratioP1;P2;durP2;ratioP2
21198;SDS011;10757;51.038;3.712;2022-07-03T00:01:23;3.58;;;1.25;;
21198;SDS011;10757;51.038;3.712;2022-07-03T00:03:49;3.42;;;1.05;;
21198;SDS011;10757;51.038;3.712;2022-07-03T00:06:15;4.18;;;1.20;;
21198;SDS011;10757;51.038;3.712;2022-07-03T00:08:41;5.40;;;1.10;;
21198;SDS011;10757;51.038;3.712;2022-07-03T00:11:07;3.70;;;1.13;;
21198;SDS011;10757;51.038;3.712;2022-07-03T00:13:33;3.50;;;1.10;;
21198;SDS011;10757;51.038;3.712;2022-07-03T00:15:59;5.60;;;0.90;;
21198;SDS011;10757;51.038;3.712;2022-07-03T00:18:25;3.38;;;1.25;;
21198;SDS011;10757;51.038;3.712;2022-07-03T00:20:58;4.90;;;1.00;;
21198;SDS011;10757;51.038;3.712;2022-07-03T00:23:25;2.88;;;1.25;;
21198;SDS011;10757;51.038;3.712;2022-07-03T00:25:55;5.15;;;1.30;;
21198;SDS011;10757;51.038;3.712;2022-07-03T00:28:23;3.95;;;1.25;;
21198;SDS011;10757;51.038;3.712;2022-07-03T00:30:51;3.58;;;1.38;;
21198;SDS011;10757;51.038;3.712;2022-07-03T00:33:18;4.50;;;1.40;;
21198;SDS011;10757;51.038;3.712;2022-07-03T00:35:45;4.25;;;1.00;;
21198;SDS011;10757;51.038;3.712;2022-07-03T00:38:14;3.92;;;1.17;;
21198;SDS011;10757;51.038;3.712;2022-07-03T00:40:41;3.50;;;1.20;;
21198;SDS011;10757;51.038;3.712;2022-07-03T00:43:08;3.55;;;1.10;;
21198;SDS011;10757;51.038;3.712;2022-07-03T00:45:34;3.97;;;1.60;;
21198;SDS011;10757;51.038;3.712;2022-07-03T00:48:00;2.88;;;1.05;;
21198;SDS011;10757;51.038;3.712;2022-07-03T00:50:34;3.63;;;0.95;;
21198;SDS011;10757;51.038;3.712;2022-07-03T00:53:02;3.45;;;1.20;;
21198;SDS011;10757;51.038;3.712;2022-07-03T00:55:28;3.28;;;1.10;;
21198;SDS011;10757;51.038;3.712;2022-07-03T00:57:55;4.18;;;0.98;;
21198;SDS011;10757;51.038;3.712;2022-07-03T01:00:24;4.00;;;1.40;;
21198;SDS011;10757;51.038;3.712;2022-07-03T01:02:51;5.20;;;1.23;;
21198;SDS011;10757;51.038;3.712;2022-07-03T01:08:13;2.80;;;1.10;;
21198;SDS011;10757;51.038;3.712;2022-07-03T01:10:54;5.53;;;1.45;;
21198;SDS011;10757;51.038;3.712;2022-07-03T01:13:37;3.33;;;1.05;;
21198;SDS011;10757;51.038;3.712;2022-07-03T01:16:57;2.42;;;1.00;;
21198;SDS011;10757;51.038;3.712;2022-07-03T01:19:39;3.30;;;1.10;;
21198;SDS011;10757;51.038;3.712;2022-07-03T01:22:25;6.72;;;1.25;;
21198;SDS011;10757;51.038;3.712;2022-07-03T01:30:24;3.00;;;1.00;;
21198;SDS011;10757;51.038;3.712;2022-07-03T01:32:57;3.03;;;1.10;;
21198;SDS011;10757;51.038;3.712;2022-07-03T01:35:31;1.92;;;0.90;;
21198;SDS011;10757;51.038;3.712;2022-07-03T01:38:01;3.83;;;1.00;;
21198;SDS011;10757;51.038;3.712;2022-07-03T01:40:29;5.43;;;1.30;;
21198;SDS011;10757;51.038;3.712;2022-07-03T01:42:57;4.90;;;1.13;;
21198;SDS011;10757;51.038;3.712;2022-07-03T01:45:27;4.35;;;1.25;;
21198;SDS011;10757;51.038;3.712;2022-07-03T01:47:56;6.47;;;1.40;;
21198;SDS011;10757;51.038;3.712;2022-07-03T01:50:23;3.03;;;1.08;;
21198;SDS011;10757;51.038;3.712;2022-07-03T01:55:21;3.40;;;1.15;;
21198;SDS011;10757;51.038;3.712;2022-07-03T01:57:49;3.03;;;1.08;;
21198;SDS011;10757;51.038;3.712;2022-07-03T02:00:19;3.85;;;1.17;;
21198;SDS011;10757;51.038;3.712;2022-07-03T02:02:52;4.72;;;1.00;;
21198;SDS011;10757;51.038;3.712;2022-07-03T02:05:28;4.13;;;1.45;;
21198;SDS011;10757;51.038;3.712;2022-07-03T02:10:41;7.30;;;1.48;;
21198;SDS011;10757;51.038;3.712;2022-07-03T02:16:24;4.55;;;1.20;;
21198;SDS011;10757;51.038;3.712;2022-07-03T02:19:02;5.45;;;1.35;;
21198;SDS011;10757;51.038;3.712;2022-07-03T02:21:30;3.95;;;1.17;;
21198;SDS011;10757;51.038;3.712;2022-07-03T02:24:17;3.95;;;1.40;;
21198;SDS011;10757;51.038;3.712;2022-07-03T02:26:55;5.47;;;1.60;;
21198;SDS011;10757;51.038;3.712;2022-07-03T02:29:36;2.05;;;0.98;;
21198;SDS011;10757;51.038;3.712;2022-07-03T02:32:11;6.28;;;1.45;;
21198;SDS011;10757;51.038;3.712;2022-07-03T02:34:38;4.68;;;1.55;;
21198;SDS011;10757;51.038;3.712;2022-07-03T02:37:23;4.55;;;1.30;;
21198;SDS011;10757;51.038;3.712;2022-07-03T02:42:43;2.90;;;1.40;;
21198;SDS011;10757;51.038;3.712;2022-07-03T02:45:12;5.18;;;1.75;;
21198;SDS011;10757;51.038;3.712;2022-07-03T02:47:51;4.90;;;1.65;;
21198;SDS011;10757;51.038;3.712;2022-07-03T02:50:27;3.88;;;1.55;;
21198;SDS011;10757;51.038;3.712;2022-07-03T02:53:09;4.72;;;1.52;;
21198;SDS011;10757;51.038;3.712;2022-07-03T02:55:45;2.83;;;1.30;;
21198;SDS011;10757;51.038;3.712;2022-07-03T03:04:20;6.28;;;2.08;;
21198;SDS011;10757;51.038;3.712;2022-07-03T03:06:55;5.40;;;1.73;;
21198;SDS011;10757;51.038;3.712;2022-07-03T03:09:31;4.30;;;1.48;;
21198;SDS011;10757;51.038;3.712;2022-07-03T03:12:04;4.10;;;1.77;;
21198;SDS011;10757;51.038;3.712;2022-07-03T03:14:36;5.20;;;1.90;;
21198;SDS011;10757;51.038;3.712;2022-07-03T03:17:20;5.20;;;2.10;;
21198;SDS011;10757;51.038;3.712;2022-07-03T03:19:54;7.30;;;2.40;;
21198;SDS011;10757;51.038;3.712;2022-07-03T03:22:38;5.78;;;2.05;;
21198;SDS011;10757;51.038;3.712;2022-07-03T03:25:05;4.78;;;2.22;;
21198;SDS011;10757;51.038;3.712;2022-07-03T03:27:31;6.03;;;2.38;;
21198;SDS011;10757;51.038;3.712;2022-07-03T03:29:56;5.07;;;2.42;;
21198;SDS011;10757;51.038;3.712;2022-07-03T03:32:23;4.68;;;2.13;;
21198;SDS011;10757;51.038;3.712;2022-07-03T03:34:51;5.95;;;2.15;;
21198;SDS011;10757;51.038;3.712;2022-07-03T03:37:16;6.93;;;3.25;;
21198;SDS011;10757;51.038;3.712;2022-07-03T03:39:42;6.30;;;2.55;;
21198;SDS011;10757;51.038;3.712;2022-07-03T03:42:08;5.63;;;2.60;;
21198;SDS011;10757;51.038;3.712;2022-07-03T03:44:34;5.60;;;2.33;;
21198;SDS011;10757;51.038;3.712;2022-07-03T03:47:04;8.93;;;2.88;;
21198;SDS011;10757;51.038;3.712;2022-07-03T03:49:30;6.25;;;2.70;;
21198;SDS011;10757;51.038;3.712;2022-07-03T03:51:56;5.68;;;3.00;;
21198;SDS011;10757;51.038;3.712;2022-07-03T03:54:22;5.25;;;2.92;;
21198;SDS011;10757;51.038;3.712;2022-07-03T03:56:47;8.90;;;4.60;;
21198;SDS011;10757;51.038;3.712;2022-07-03T03:59:13;5.88;;;3.28;;
21198;SDS011;10757;51.038;3.712;2022-07-03T04:01:39;9.38;;;3.92;;
21198;SDS011;10757;51.038;3.712;2022-07-03T04:04:04;8.75;;;4.20;;
21198;SDS011;10757;51.038;3.712;2022-07-03T04:06:30;7.25;;;3.45;;
21198;SDS011;10757;51.038;3.712;2022-07-03T04:08:55;8.50;;;3.78;;
21198;SDS011;10757;51.038;3.712;2022-07-03T04:11:21;6.55;;;3.78;;
21198;SDS011;10757;51.038;3.712;2022-07-03T04:13:47;7.57;;;3.90;;
21198;SDS011;10757;51.038;3.712;2022-07-03T04:16:12;8.07;;;3.90;;
21198;SDS011;10757;51.038;3.712;2022-07-03T04:18:38;9.57;;;4.70;;
21198;SDS011;10757;51.038;3.712;2022-07-03T04:21:04;12.00;;;4.95;;
21198;SDS011;10757;51.038;3.712;2022-07-03T04:23:30;7.00;;;4.82;;
21198;SDS011;10757;51.038;3.712;2022-07-03T04:25:55;10.80;;;5.00;;
21198;SDS011;10757;51.038;3.712;2022-07-03T04:28:28;7.60;;;4.55;;
21198;SDS011;10757;51.038;3.712;2022-07-03T04:30:54;9.57;;;5.43;;
21198;SDS011;10757;51.038;3.712;2022-07-03T04:33:20;8.90;;;5.15;;
21198;SDS011;10757;51.038;3.712;2022-07-03T04:35:45;7.30;;;4.80;;
21198;SDS011;10757;51.038;3.712;2022-07-03T04:38:12;8.05;;;4.38;;
21198;SDS011;10757;51.038;3.712;2022-07-03T04:40:38;9.82;;;4.63;;
21198;SDS011;10757;51.038;3.712;2022-07-03T04:43:04;7.75;;;5.50;;
21198;SDS011;10757;51.038;3.712;2022-07-03T04:45:29;9.75;;;5.32;;
21198;SDS011;10757;51.038;3.712;2022-07-03T04:47:55;32.38;;;23.23;;
21198;SDS011;10757;51.038;3.712;2022-07-03T04:50:21;10.27;;;6.15;;
21198;SDS011;10757;51.038;3.712;2022-07-03T04:52:46;10.57;;;5.78;;
21198;SDS011;10757;51.038;3.712;2022-07-03T04:55:12;9.45;;;5.35;;
21198;SDS011;10757;51.038;3.712;2022-07-03T04:57:39;9.82;;;4.85;;
21198;SDS011;10757;51.038;3.712;2022-07-03T05:00:05;10.15;;;5.65;;
21198;SDS011;10757;51.038;3.712;2022-07-03T05:08:03;8.45;;;4.50;;
21198;SDS011;10757;51.038;3.712;2022-07-03T05:10:43;8.73;;;4.10;;
21198;SDS011;10757;51.038;3.712;2022-07-03T05:19:19;8.20;;;4.70;;
21198;SDS011;10757;51.038;3.712;2022-07-03T05:21:55;8.45;;;4.10;;
21198;SDS011;10757;51.038;3.712;2022-07-03T05:24:20;8.07;;;4.53;;
21198;SDS011;10757;51.038;3.712;2022-07-03T05:26:55;14.52;;;4.85;;
21198;SDS011;10757;51.038;3.712;2022-07-03T05:29:21;10.07;;;4.68;;
21198;SDS011;10757;51.038;3.712;2022-07-03T05:31:47;9.10;;;5.13;;
21198;SDS011;10757;51.038;3.712;2022-07-03T05:34:18;9.80;;;4.85;;
21198;SDS011;10757;51.038;3.712;2022-07-03T05:37:31;9.00;;;4.75;;
21198;SDS011;10757;51.038;3.712;2022-07-03T05:39:57;11.38;;;5.10;;
21198;SDS011;10757;51.038;3.712;2022-07-03T05:42:26;9.73;;;5.30;;
21198;SDS011;10757;51.038;3.712;2022-07-03T05:44:52;8.70;;;5.70;;
21198;SDS011;10757;51.038;3.712;2022-07-03T05:47:19;12.15;;;5.25;;
21198;SDS011;10757;51.038;3.712;2022-07-03T05:49:45;8.85;;;5.15;;
21198;SDS011;10757;51.038;3.712;2022-07-03T05:52:11;9.65;;;4.43;;
21198;SDS011;10757;51.038;3.712;2022-07-03T05:54:37;12.00;;;4.82;;
21198;SDS011;10757;51.038;3.712;2022-07-03T05:57:03;8.15;;;4.25;;
21198;SDS011;10757;51.038;3.712;2022-07-03T05:59:30;9.32;;;4.88;;
21198;SDS011;10757;51.038;3.712;2022-07-03T06:01:55;12.57;;;5.35;;
21198;SDS011;10757;51.038;3.712;2022-07-03T06:04:21;10.63;;;4.28;;
21198;SDS011;10757;51.038;3.712;2022-07-03T06:06:47;6.43;;;3.85;;
21198;SDS011;10757;51.038;3.712;2022-07-03T06:09:13;11.07;;;4.53;;
21198;SDS011;10757;51.038;3.712;2022-07-03T06:11:38;8.13;;;4.28;;
21198;SDS011;10757;51.038;3.712;2022-07-03T06:14:04;11.60;;;4.78;;
21198;SDS011;10757;51.038;3.712;2022-07-03T06:16:30;13.18;;;4.85;;
21198;SDS011;10757;51.038;3.712;2022-07-03T06:18:56;9.98;;;5.13;;
21198;SDS011;10757;51.038;3.712;2022-07-03T06:21:22;6.65;;;4.03;;
21198;SDS011;10757;51.038;3.712;2022-07-03T06:23:48;9.52;;;5.13;;
21198;SDS011;10757;51.038;3.712;2022-07-03T06:26:14;9.75;;;4.78;;
21198;SDS011;10757;51.038;3.712;2022-07-03T06:28:40;7.97;;;4.18;;
21198;SDS011;10757;51.038;3.712;2022-07-03T06:31:07;9.02;;;4.28;;
21198;SDS011;10757;51.038;3.712;2022-07-03T06:33:33;10.43;;;4.32;;
21198;SDS011;10757;51.038;3.712;2022-07-03T06:35:59;8.80;;;4.18;;
21198;SDS011;10757;51.038;3.712;2022-07-03T06:38:25;7.88;;;3.70;;
21198;SDS011;10757;51.038;3.712;2022-07-03T06:40:51;8.68;;;4.60;;
21198;SDS011;10757;51.038;3.712;2022-07-03T06:43:17;11.75;;;4.85;;
21198;SDS011;10757;51.038;3.712;2022-07-03T06:45:43;8.57;;;3.90;;
21198;SDS011;10757;51.038;3.712;2022-07-03T06:48:09;9.77;;;4.25;;
21198;SDS011;10757;51.038;3.712;2022-07-03T06:50:35;11.50;;;4.70;;
21198;SDS011;10757;51.038;3.712;2022-07-03T06:53:01;5.60;;;4.18;;
21198;SDS011;10757;51.038;3.712;2022-07-03T06:55:27;10.88;;;4.82;;
21198;SDS011;10757;51.038;3.712;2022-07-03T06:57:54;7.55;;;4.45;;
21198;SDS011;10757;51.038;3.712;2022-07-03T07:00:20;9.68;;;4.43;;
21198;SDS011;10757;51.038;3.712;2022-07-03T07:02:45;11.93;;;4.72;;
21198;SDS011;10757;51.038;3.712;2022-07-03T07:05:12;9.07;;;4.53;;
21198;SDS011;10757;51.038;3.712;2022-07-03T07:07:38;11.82;;;4.78;;
21198;SDS011;10757;51.038;3.712;2022-07-03T07:10:04;10.02;;;3.97;;
21198;SDS011;10757;51.038;3.712;2022-07-03T07:12:30;6.40;;;3.90;;
21198;SDS011;10757;51.038;3.712;2022-07-03T07:14:56;8.68;;;4.30;;
21198;SDS011;10757;51.038;3.712;2022-07-03T07:17:22;10.30;;;4.60;;
21198;SDS011;10757;51.038;3.712;2022-07-03T07:19:48;8.85;;;4.00;;
21198;SDS011;10757;51.038;3.712;2022-07-03T07:22:14;9.05;;;4.68;;
21198;SDS011;10757;51.038;3.712;2022-07-03T07:24:39;7.72;;;4.60;;
21198;SDS011;10757;51.038;3.712;2022-07-03T07:27:05;8.32;;;4.47;;
21198;SDS011;10757;51.038;3.712;2022-07-03T07:29:31;9.25;;;3.75;;
21198;SDS011;10757;51.038;3.712;2022-07-03T07:31:57;10.43;;;4.00;;
21198;SDS011;10757;51.038;3.712;2022-07-03T07:34:23;10.88;;;4.18;;
21198;SDS011;10757;51.038;3.712;2022-07-03T07:39:18;7.07;;;3.50;;
21198;SDS011;10757;51.038;3.712;2022-07-03T07:41:44;7.60;;;3.92;;
21198;SDS011;10757;51.038;3.712;2022-07-03T07:44:10;9.75;;;3.72;;
21198;SDS011;10757;51.038;3.712;2022-07-03T07:46:39;6.72;;;3.50;;
21198;SDS011;10757;51.038;3.712;2022-07-03T07:49:05;5.68;;;2.83;;
21198;SDS011;10757;51.038;3.712;2022-07-03T07:51:31;8.05;;;2.92;;
21198;SDS011;10757;51.038;3.712;2022-07-03T07:53:57;5.32;;;2.58;;
21198;SDS011;10757;51.038;3.712;2022-07-03T07:56:24;6.57;;;3.08;;
21198;SDS011;10757;51.038;3.712;2022-07-03T07:58:51;5.72;;;3.03;;
21198;SDS011;10757;51.038;3.712;2022-07-03T08:01:19;4.88;;;2.97;;
21198;SDS011;10757;51.038;3.712;2022-07-03T08:04:03;7.95;;;2.70;;
21198;SDS011;10757;51.038;3.712;2022-07-03T08:06:47;5.43;;;1.95;;
21198;SDS011;10757;51.038;3.712;2022-07-03T08:09:13;7.03;;;2.63;;
21198;SDS011;10757;51.038;3.712;2022-07-03T08:11:39;6.57;;;2.50;;
21198;SDS011;10757;51.038;3.712;2022-07-03T08:14:08;5.35;;;2.20;;
21198;SDS011;10757;51.038;3.712;2022-07-03T08:16:35;11.35;;;1.83;;
21198;SDS011;10757;51.038;3.712;2022-07-03T08:19:01;7.95;;;2.33;;
21198;SDS011;10757;51.038;3.712;2022-07-03T08:21:27;5.95;;;1.88;;
21198;SDS011;10757;51.038;3.712;2022-07-03T08:23:53;4.70;;;1.90;;
21198;SDS011;10757;51.038;3.712;2022-07-03T08:26:18;7.32;;;2.45;;
21198;SDS011;10757;51.038;3.712;2022-07-03T08:28:44;3.60;;;1.80;;
21198;SDS011;10757;51.038;3.712;2022-07-03T08:31:10;6.20;;;1.90;;
21198;SDS011;10757;51.038;3.712;2022-07-03T08:33:36;7.50;;;2.17;;
21198;SDS011;10757;51.038;3.712;2022-07-03T08:36:01;5.90;;;1.85;;
21198;SDS011;10757;51.038;3.712;2022-07-03T08:38:30;5.40;;;1.50;;
21198;SDS011;10757;51.038;3.712;2022-07-03T08:41:00;3.08;;;1.00;;
21198;SDS011;10757;51.038;3.712;2022-07-03T08:43:35;3.17;;;0.80;;
21198;SDS011;10757;51.038;3.712;2022-07-03T08:46:18;4.90;;;1.15;;
21198;SDS011;10757;51.038;3.712;2022-07-03T08:49:05;5.30;;;1.70;;
21198;SDS011;10757;51.038;3.712;2022-07-03T08:51:37;3.78;;;1.60;;
21198;SDS011;10757;51.038;3.712;2022-07-03T08:54:22;7.35;;;2.00;;
21198;SDS011;10757;51.038;3.712;2022-07-03T08:57:10;5.75;;;1.90;;
21198;SDS011;10757;51.038;3.712;2022-07-03T09:02:06;5.45;;;1.50;;
21198;SDS011;10757;51.038;3.712;2022-07-03T09:04:44;6.18;;;1.50;;
21198;SDS011;10757;51.038;3.712;2022-07-03T09:07:17;4.93;;;1.33;;
21198;SDS011;10757;51.038;3.712;2022-07-03T09:09:44;5.93;;;1.67;;
21198;SDS011;10757;51.038;3.712;2022-07-03T09:12:12;7.22;;;1.90;;
21198;SDS011;10757;51.038;3.712;2022-07-03T09:14:39;6.68;;;1.95;;
21198;SDS011;10757;51.038;3.712;2022-07-03T09:17:09;6.50;;;1.85;;
21198;SDS011;10757;51.038;3.712;2022-07-03T09:19:42;8.30;;;1.95;;
21198;SDS011;10757;51.038;3.712;2022-07-03T09:22:16;6.85;;;1.63;;
21198;SDS011;10757;51.038;3.712;2022-07-03T09:24:52;7.18;;;1.77;;
21198;SDS011;10757;51.038;3.712;2022-07-03T09:27:22;4.97;;;1.50;;
21198;SDS011;10757;51.038;3.712;2022-07-03T09:32:32;4.57;;;1.50;;
21198;SDS011;10757;51.038;3.712;2022-07-03T09:38:00;5.80;;;1.60;;
21198;SDS011;10757;51.038;3.712;2022-07-03T09:43:17;5.30;;;1.58;;
21198;SDS011;10757;51.038;3.712;2022-07-03T09:45:58;4.90;;;1.42;;
21198;SDS011;10757;51.038;3.712;2022-07-03T09:48:35;4.32;;;0.93;;
21198;SDS011;10757;51.038;3.712;2022-07-03T09:51:16;5.78;;;1.10;;
21198;SDS011;10757;51.038;3.712;2022-07-03T09:56:26;6.03;;;0.93;;
21198;SDS011;10757;51.038;3.712;2022-07-03T10:01:30;4.75;;;1.02;;
21198;SDS011;10757;51.038;3.712;2022-07-03T10:04:14;5.82;;;1.00;;
21198;SDS011;10757;51.038;3.712;2022-07-03T10:06:50;3.03;;;0.95;;
21198;SDS011;10757;51.038;3.712;2022-07-03T10:09:16;4.47;;;0.88;;
21198;SDS011;10757;51.038;3.712;2022-07-03T10:11:43;2.90;;;1.05;;
21198;SDS011;10757;51.038;3.712;2022-07-03T10:14:14;3.53;;;0.93;;
21198;SDS011;10757;51.038;3.712;2022-07-03T10:16:41;3.05;;;1.08;;
21198;SDS011;10757;51.038;3.712;2022-07-03T10:19:13;5.78;;;1.15;;
21198;SDS011;10757;51.038;3.712;2022-07-03T10:21:42;4.90;;;1.23;;
21198;SDS011;10757;51.038;3.712;2022-07-03T10:24:09;6.07;;;1.20;;
21198;SDS011;10757;51.038;3.712;2022-07-03T10:26:36;2.50;;;0.70;;
21198;SDS011;10757;51.038;3.712;2022-07-03T10:29:02;4.38;;;1.20;;
21198;SDS011;10757;51.038;3.712;2022-07-03T10:31:28;5.00;;;1.10;;
21198;SDS011;10757;51.038;3.712;2022-07-03T10:33:56;2.47;;;0.77;;
21198;SDS011;10757;51.038;3.712;2022-07-03T10:36:24;4.05;;;0.63;;
21198;SDS011;10757;51.038;3.712;2022-07-03T10:38:50;2.45;;;0.98;;
21198;SDS011;10757;51.038;3.712;2022-07-03T10:41:28;3.00;;;0.95;;
21198;SDS011;10757;51.038;3.712;2022-07-03T10:44:19;7.65;;;1.58;;
21198;SDS011;10757;51.038;3.712;2022-07-03T10:47:04;3.95;;;1.10;;
21198;SDS011;10757;51.038;3.712;2022-07-03T10:49:30;4.43;;;1.00;;
21198;SDS011;10757;51.038;3.712;2022-07-03T10:51:57;4.40;;;0.95;;
21198;SDS011;10757;51.038;3.712;2022-07-03T10:54:31;6.22;;;1.27;;
21198;SDS011;10757;51.038;3.712;2022-07-03T10:57:05;3.97;;;1.00;;
21198;SDS011;10757;51.038;3.712;2022-07-03T11:07:28;3.78;;;0.80;;
21198;SDS011;10757;51.038;3.712;2022-07-03T11:13:01;3.35;;;0.77;;
21198;SDS011;10757;51.038;3.712;2022-07-03T11:18:14;2.45;;;0.80;;
21198;SDS011;10757;51.038;3.712;2022-07-03T11:25:53;1.92;;;0.52;;
21198;SDS011;10757;51.038;3.712;2022-07-03T11:41:13;2.30;;;0.77;;
21198;SDS011;10757;51.038;3.712;2022-07-03T11:43:47;4.15;;;1.20;;
21198;SDS011;10757;51.038;3.712;2022-07-03T11:46:21;3.72;;;1.15;;
21198;SDS011;10757;51.038;3.712;2022-07-03T11:48:48;4.28;;;1.20;;
21198;SDS011;10757;51.038;3.712;2022-07-03T11:51:20;7.30;;;1.52;;
21198;SDS011;10757;51.038;3.712;2022-07-03T11:53:45;3.75;;;0.90;;
21198;SDS011;10757;51.038;3.712;2022-07-03T11:56:12;4.15;;;1.00;;
21198;SDS011;10757;51.038;3.712;2022-07-03T11:58:49;6.93;;;1.17;;
21198;SDS011;10757;51.038;3.712;2022-07-03T12:04:02;7.30;;;1.67;;
21198;SDS011;10757;51.038;3.712;2022-07-03T12:06:41;4.88;;;1.60;;
21198;SDS011;10757;51.038;3.712;2022-07-03T12:12:08;5.75;;;0.82;;
21198;SDS011;10757;51.038;3.712;2022-07-03T12:17:06;5.38;;;1.75;;
21198;SDS011;10757;51.038;3.712;2022-07-03T12:19:34;2.85;;;0.85;;
21198;SDS011;10757;51.038;3.712;2022-07-03T12:22:00;4.25;;;1.67;;
21198;SDS011;10757;51.038;3.712;2022-07-03T12:24:27;3.92;;;0.70;;
21198;SDS011;10757;51.038;3.712;2022-07-03T12:26:53;5.60;;;1.58;;
21198;SDS011;10757;51.038;3.712;2022-07-03T12:29:18;5.43;;;1.00;;
21198;SDS011;10757;51.038;3.712;2022-07-03T12:31:45;0.68;;;0.30;;
21198;SDS011;10757;51.038;3.712;2022-07-03T12:34:13;2.75;;;0.82;;
21198;SDS011;10757;51.038;3.712;2022-07-03T12:36:40;2.22;;;0.63;;
21198;SDS011;10757;51.038;3.712;2022-07-03T12:39:18;8.82;;;2.47;;
21198;SDS011;10757;51.038;3.712;2022-07-03T12:41:44;3.35;;;0.95;;
21198;SDS011;10757;51.038;3.712;2022-07-03T12:44:10;3.45;;;0.80;;
21198;SDS011;10757;51.038;3.712;2022-07-03T12:46:35;3.45;;;1.35;;
21198;SDS011;10757;51.038;3.712;2022-07-03T12:49:08;3.40;;;0.75;;
21198;SDS011;10757;51.038;3.712;2022-07-03T12:51:45;12.23;;;4.88;;
21198;SDS011;10757;51.038;3.712;2022-07-03T12:54:15;4.38;;;2.00;;
21198;SDS011;10757;51.038;3.712;2022-07-03T12:57:02;7.13;;;2.00;;
21198;SDS011;10757;51.038;3.712;2022-07-03T13:02:35;3.08;;;0.90;;
21198;SDS011;10757;51.038;3.712;2022-07-03T13:05:12;3.97;;;1.73;;
21198;SDS011;10757;51.038;3.712;2022-07-03T13:07:44;3.28;;;0.63;;
21198;SDS011;10757;51.038;3.712;2022-07-03T13:10:11;3.22;;;1.60;;
21198;SDS011;10757;51.038;3.712;2022-07-03T13:13:13;2.47;;;0.80;;
21198;SDS011;10757;51.038;3.712;2022-07-03T13:15:32;4.65;;;1.58;;
21198;SDS011;10757;51.038;3.712;2022-07-03T13:18:00;5.78;;;1.00;;
21198;SDS011;10757;51.038;3.712;2022-07-03T13:20:27;5.85;;;0.90;;
21198;SDS011;10757;51.038;3.712;2022-07-03T13:22:56;5.20;;;1.90;;
21198;SDS011;10757;51.038;3.712;2022-07-03T13:25:24;3.50;;;1.95;;
21198;SDS011;10757;51.038;3.712;2022-07-03T13:27:50;4.00;;;1.90;;
21198;SDS011;10757;51.038;3.712;2022-07-03T13:30:17;3.75;;;1.05;;
21198;SDS011;10757;51.038;3.712;2022-07-03T13:32:48;4.85;;;2.42;;
21198;SDS011;10757;51.038;3.712;2022-07-03T13:35:13;3.63;;;1.15;;
21198;SDS011;10757;51.038;3.712;2022-07-03T13:37:39;5.75;;;1.00;;
21198;SDS011;10757;51.038;3.712;2022-07-03T13:40:05;4.50;;;1.05;;
21198;SDS011;10757;51.038;3.712;2022-07-03T13:42:31;2.08;;;0.80;;
21198;SDS011;10757;51.038;3.712;2022-07-03T13:44:57;5.07;;;0.90;;
21198;SDS011;10757;51.038;3.712;2022-07-03T13:47:23;4.85;;;1.20;;
21198;SDS011;10757;51.038;3.712;2022-07-03T13:49:49;3.92;;;0.80;;
21198;SDS011;10757;51.038;3.712;2022-07-03T13:52:14;4.70;;;0.98;;
21198;SDS011;10757;51.038;3.712;2022-07-03T13:54:40;4.65;;;1.00;;
21198;SDS011;10757;51.038;3.712;2022-07-03T13:57:06;5.18;;;1.30;;
21198;SDS011;10757;51.038;3.712;2022-07-03T13:59:32;5.53;;;1.20;;
21198;SDS011;10757;51.038;3.712;2022-07-03T14:01:58;4.38;;;1.00;;
21198;SDS011;10757;51.038;3.712;2022-07-03T14:04:24;6.72;;;1.27;;
21198;SDS011;10757;51.038;3.712;2022-07-03T14:06:50;6.85;;;1.25;;
21198;SDS011;10757;51.038;3.712;2022-07-03T14:09:15;4.68;;;1.73;;
21198;SDS011;10757;51.038;3.712;2022-07-03T14:11:41;2.47;;;0.73;;
21198;SDS011;10757;51.038;3.712;2022-07-03T14:14:07;4.15;;;1.13;;
21198;SDS011;10757;51.038;3.712;2022-07-03T14:16:33;2.90;;;0.82;;
21198;SDS011;10757;51.038;3.712;2022-07-03T14:18:59;4.05;;;1.08;;
21198;SDS011;10757;51.038;3.712;2022-07-03T14:21:28;5.18;;;0.80;;
21198;SDS011;10757;51.038;3.712;2022-07-03T14:23:55;7.38;;;1.00;;
21198;SDS011;10757;51.038;3.712;2022-07-03T14:26:22;3.72;;;1.40;;
21198;SDS011;10757;51.038;3.712;2022-07-03T14:29:09;3.80;;;1.20;;
21198;SDS011;10757;51.038;3.712;2022-07-03T14:31:53;3.67;;;0.95;;
21198;SDS011;10757;51.038;3.712;2022-07-03T14:34:38;5.05;;;0.90;;
21198;SDS011;10757;51.038;3.712;2022-07-03T14:37:04;2.78;;;0.60;;
21198;SDS011;10757;51.038;3.712;2022-07-03T14:39:30;3.70;;;0.77;;
21198;SDS011;10757;51.038;3.712;2022-07-03T14:41:56;2.72;;;0.60;;
21198;SDS011;10757;51.038;3.712;2022-07-03T14:44:21;4.13;;;0.70;;
21198;SDS011;10757;51.038;3.712;2022-07-03T14:46:50;4.45;;;0.80;;
21198;SDS011;10757;51.038;3.712;2022-07-03T14:49:16;2.85;;;0.70;;
21198;SDS011;10757;51.038;3.712;2022-07-03T14:51:42;4.60;;;0.90;;
21198;SDS011;10757;51.038;3.712;2022-07-03T14:54:08;3.38;;;0.68;;
21198;SDS011;10757;51.038;3.712;2022-07-03T14:56:36;4.00;;;0.50;;
21198;SDS011;10757;51.038;3.712;2022-07-03T14:59:07;7.70;;;1.77;;
21198;SDS011;10757;51.038;3.712;2022-07-03T15:01:38;5.60;;;1.38;;
21198;SDS011;10757;51.038;3.712;2022-07-03T15:04:09;5.97;;;1.67;;
21198;SDS011;10757;51.038;3.712;2022-07-03T15:06:50;5.43;;;0.73;;
21198;SDS011;10757;51.038;3.712;2022-07-03T15:09:17;3.03;;;0.80;;
21198;SDS011;10757;51.038;3.712;2022-07-03T15:11:54;4.05;;;1.35;;
21198;SDS011;10757;51.038;3.712;2022-07-03T15:14:42;3.90;;;0.90;;
21198;SDS011;10757;51.038;3.712;2022-07-03T15:17:08;3.33;;;0.93;;
21198;SDS011;10757;51.038;3.712;2022-07-03T15:19:37;4.45;;;0.80;;
21198;SDS011;10757;51.038;3.712;2022-07-03T15:22:03;4.65;;;1.00;;
21198;SDS011;10757;51.038;3.712;2022-07-03T15:24:30;4.55;;;1.40;;
21198;SDS011;10757;51.038;3.712;2022-07-03T15:26:56;7.55;;;1.52;;
21198;SDS011;10757;51.038;3.712;2022-07-03T15:29:23;4.93;;;1.30;;
21198;SDS011;10757;51.038;3.712;2022-07-03T15:31:50;4.40;;;1.33;;
21198;SDS011;10757;51.038;3.712;2022-07-03T15:34:16;3.53;;;0.60;;
21198;SDS011;10757;51.038;3.712;2022-07-03T15:39:48;6.35;;;1.38;;
21198;SDS011;10757;51.038;3.712;2022-07-03T15:45:11;5.03;;;1.17;;
21198;SDS011;10757;51.038;3.712;2022-07-03T15:53:14;3.80;;;1.55;;
21198;SDS011;10757;51.038;3.712;2022-07-03T15:55:44;4.70;;;1.02;;
21198;SDS011;10757;51.038;3.712;2022-07-03T15:58:11;3.40;;;1.10;;
21198;SDS011;10757;51.038;3.712;2022-07-03T16:00:38;4.63;;;1.75;;
21198;SDS011;10757;51.038;3.712;2022-07-03T16:05:49;5.68;;;1.70;;
21198;SDS011;10757;51.038;3.712;2022-07-03T16:08:18;2.90;;;0.90;;
21198;SDS011;10757;51.038;3.712;2022-07-03T16:10:45;3.83;;;1.73;;
21198;SDS011;10757;51.038;3.712;2022-07-03T16:13:10;9.20;;;2.63;;
21198;SDS011;10757;51.038;3.712;2022-07-03T16:15:37;3.85;;;1.77;;
21198;SDS011;10757;51.038;3.712;2022-07-03T16:18:05;5.82;;;2.10;;
21198;SDS011;10757;51.038;3.712;2022-07-03T16:20:32;6.20;;;1.45;;
21198;SDS011;10757;51.038;3.712;2022-07-03T16:23:03;5.20;;;1.30;;
21198;SDS011;10757;51.038;3.712;2022-07-03T16:25:36;4.35;;;1.30;;
21198;SDS011;10757;51.038;3.712;2022-07-03T16:28:03;3.60;;;1.17;;
21198;SDS011;10757;51.038;3.712;2022-07-03T16:30:33;5.50;;;1.10;;
21198;SDS011;10757;51.038;3.712;2022-07-03T16:33:01;4.22;;;1.55;;
21198;SDS011;10757;51.038;3.712;2022-07-03T16:38:21;3.85;;;1.15;;
21198;SDS011;10757;51.038;3.712;2022-07-03T16:40:51;10.98;;;1.15;;
21198;SDS011;10757;51.038;3.712;2022-07-03T16:43:19;6.47;;;2.78;;
21198;SDS011;10757;51.038;3.712;2022-07-03T16:45:49;4.70;;;1.40;;
21198;SDS011;10757;51.038;3.712;2022-07-03T16:48:22;7.47;;;1.48;;
21198;SDS011;10757;51.038;3.712;2022-07-03T16:50:59;5.93;;;1.30;;
21198;SDS011;10757;51.038;3.712;2022-07-03T16:53:30;4.00;;;1.42;;
21198;SDS011;10757;51.038;3.712;2022-07-03T16:55:56;5.75;;;1.55;;